sensor_id;sensor_type;location;lat;lon;timestamp;P1;durP1;ratioP1;P2;durP2;ratioP2
44116;SDS011;29781;49.480;8.512;2022-09-30T00:00:56;8.98;;;6.05;;
44116;SDS011;29781;49.480;8.512;2022-09-30T00:03:22;10.00;;;6.20;;
44116;SDS011;29781;49.480;8.512;2022-09-30T00:05:55;18.73;;;7.85;;
44116;SDS011;29781;49.480;8.512;2022-09-30T00:08:22;10.98;;;6.93;;
44116;SDS011;29781;49.480;8.512;2022-09-30T00:10:56;12.57;;;7.65;;
44116;SDS011;29781;49.480;8.512;2022-09-30T00:13:43;9.13;;;7.18;;
44116;SDS011;29781;49.480;8.512;2022-09-30T00:16:11;11.27;;;7.03;;
44116;SDS011;29781;49.480;8.512;2022-09-30T00:18:38;9.25;;;7.05;;
44116;SDS011;29781;49.480;8.512;2022-09-30T00:21:04;11.57;;;6.85;;
44116;SDS011;29781;49.480;8.512;2022-09-30T00:23:31;17.60;;;7.05;;
44116;SDS011;29781;49.480;8.512;2022-09-30T00:26:00;10.60;;;7.10;;
44116;SDS011;29781;49.480;8.512;2022-09-30T00:28:28;11.55;;;6.93;;
44116;SDS011;29781;49.480;8.512;2022-09-30T00:30:57;10.82;;;7.18;;
44116;SDS011;29781;49.480;8.512;2022-09-30T00:33:24;9.35;;;6.53;;
44116;SDS011;29781;49.480;8.512;2022-09-30T00:35:50;8.43;;;6.55;;
44116;SDS011;29781;49.480;8.512;2022-09-30T00:38:15;11.00;;;6.03;;
44116;SDS011;29781;49.480;8.512;2022-09-30T00:40:41;11.10;;;6.38;;
44116;SDS011;29781;49.480;8.512;2022-09-30T00:43:14;11.82;;;6.63;;
44116;SDS011;29781;49.480;8.512;2022-09-30T00:45:48;7.30;;;6.00;;
44116;SDS011;29781;49.480;8.512;2022-09-30T00:48:30;9.05;;;6.75;;
44116;SDS011;29781;49.480;8.512;2022-09-30T00:50:59;9.82;;;5.65;;
44116;SDS011;29781;49.480;8.512;2022-09-30T00:53:29;8.77;;;5.88;;
44116;SDS011;29781;49.480;8.512;2022-09-30T00:58:31;11.13;;;5.82;;
44116;SDS011;29781;49.480;8.512;2022-09-30T01:01:19;8.50;;;5.32;;
44116;SDS011;29781;49.480;8.512;2022-09-30T01:03:49;6.45;;;5.72;;
44116;SDS011;29781;49.480;8.512;2022-09-30T01:08:45;7.65;;;5.35;;
44116;SDS011;29781;49.480;8.512;2022-09-30T01:11:11;7.10;;;4.90;;
44116;SDS011;29781;49.480;8.512;2022-09-30T01:13:38;6.65;;;5.05;;
44116;SDS011;29781;49.480;8.512;2022-09-30T01:22:58;5.82;;;4.60;;
44116;SDS011;29781;49.480;8.512;2022-09-30T01:31:25;7.10;;;5.15;;
44116;SDS011;29781;49.480;8.512;2022-09-30T01:39:48;8.90;;;5.35;;
44116;SDS011;29781;49.480;8.512;2022-09-30T01:42:44;7.20;;;5.40;;
44116;SDS011;29781;49.480;8.512;2022-09-30T01:45:30;9.40;;;5.60;;
44116;SDS011;29781;49.480;8.512;2022-09-30T01:47:59;10.35;;;5.68;;
44116;SDS011;29781;49.480;8.512;2022-09-30T01:50:41;5.90;;;5.00;;
44116;SDS011;29781;49.480;8.512;2022-09-30T01:58:38;6.55;;;4.90;;
44116;SDS011;29781;49.480;8.512;2022-09-30T02:01:11;9.07;;;5.75;;
44116;SDS011;29781;49.480;8.512;2022-09-30T02:03:52;9.35;;;5.43;;
44116;SDS011;29781;49.480;8.512;2022-09-30T02:06:25;7.15;;;5.53;;
44116;SDS011;29781;49.480;8.512;2022-09-30T02:09:01;9.70;;;5.65;;
44116;SDS011;29781;49.480;8.512;2022-09-30T02:11:32;9.13;;;5.45;;
44116;SDS011;29781;49.480;8.512;2022-09-30T02:16:39;6.55;;;5.32;;
44116;SDS011;29781;49.480;8.512;2022-09-30T02:21:57;6.30;;;5.00;;
44116;SDS011;29781;49.480;8.512;2022-09-30T02:24:25;9.80;;;5.00;;
44116;SDS011;29781;49.480;8.512;2022-09-30T02:26:56;8.50;;;4.80;;
44116;SDS011;29781;49.480;8.512;2022-09-30T02:29:29;6.95;;;5.43;;
44116;SDS011;29781;49.480;8.512;2022-09-30T02:32:08;6.13;;;4.75;;
44116;SDS011;29781;49.480;8.512;2022-09-30T02:34:39;8.80;;;5.20;;
44116;SDS011;29781;49.480;8.512;2022-09-30T02:37:29;7.22;;;5.18;;
44116;SDS011;29781;49.480;8.512;2022-09-30T02:42:31;8.80;;;5.97;;
44116;SDS011;29781;49.480;8.512;2022-09-30T02:45:02;7.60;;;5.50;;
44116;SDS011;29781;49.480;8.512;2022-09-30T02:55:54;8.95;;;5.63;;
44116;SDS011;29781;49.480;8.512;2022-09-30T02:58:34;11.35;;;5.35;;
44116;SDS011;29781;49.480;8.512;2022-09-30T03:01:03;6.30;;;5.25;;
44116;SDS011;29781;49.480;8.512;2022-09-30T03:03:41;8.75;;;5.20;;
44116;SDS011;29781;49.480;8.512;2022-09-30T03:06:12;6.75;;;5.25;;
44116;SDS011;29781;49.480;8.512;2022-09-30T03:08:39;7.63;;;5.85;;
44116;SDS011;29781;49.480;8.512;2022-09-30T03:11:04;6.88;;;5.68;;
44116;SDS011;29781;49.480;8.512;2022-09-30T03:27:46;7.95;;;5.63;;
44116;SDS011;29781;49.480;8.512;2022-09-30T03:30:24;7.88;;;5.45;;
44116;SDS011;29781;49.480;8.512;2022-09-30T03:33:07;7.20;;;5.20;;
44116;SDS011;29781;49.480;8.512;2022-09-30T03:35:41;6.82;;;5.05;;
44116;SDS011;29781;49.480;8.512;2022-09-30T03:43:42;7.35;;;5.32;;
44116;SDS011;29781;49.480;8.512;2022-09-30T03:48:50;6.53;;;5.68;;
44116;SDS011;29781;49.480;8.512;2022-09-30T03:51:19;19.00;;;5.75;;
44116;SDS011;29781;49.480;8.512;2022-09-30T03:53:45;7.53;;;5.60;;
44116;SDS011;29781;49.480;8.512;2022-09-30T03:56:11;7.40;;;5.80;;
44116;SDS011;29781;49.480;8.512;2022-09-30T03:58:41;6.60;;;5.75;;
44116;SDS011;29781;49.480;8.512;2022-09-30T04:01:10;6.18;;;5.57;;
44116;SDS011;29781;49.480;8.512;2022-09-30T04:03:44;7.43;;;5.18;;
44116;SDS011;29781;49.480;8.512;2022-09-30T04:06:13;7.10;;;5.45;;
44116;SDS011;29781;49.480;8.512;2022-09-30T04:08:39;6.25;;;5.20;;
44116;SDS011;29781;49.480;8.512;2022-09-30T04:11:04;8.98;;;5.78;;
44116;SDS011;29781;49.480;8.512;2022-09-30T04:13:30;8.20;;;5.65;;
44116;SDS011;29781;49.480;8.512;2022-09-30T04:15:56;7.05;;;5.70;;
44116;SDS011;29781;49.480;8.512;2022-09-30T04:18:22;7.10;;;6.03;;
44116;SDS011;29781;49.480;8.512;2022-09-30T04:20:48;10.10;;;5.45;;
44116;SDS011;29781;49.480;8.512;2022-09-30T04:23:14;8.05;;;5.03;;
44116;SDS011;29781;49.480;8.512;2022-09-30T04:25:40;8.63;;;5.45;;
44116;SDS011;29781;49.480;8.512;2022-09-30T04:28:06;7.70;;;5.80;;
44116;SDS011;29781;49.480;8.512;2022-09-30T04:30:32;9.60;;;5.82;;
44116;SDS011;29781;49.480;8.512;2022-09-30T04:32:57;8.73;;;5.28;;
44116;SDS011;29781;49.480;8.512;2022-09-30T04:35:23;11.32;;;5.82;;
44116;SDS011;29781;49.480;8.512;2022-09-30T04:37:49;6.57;;;5.65;;
44116;SDS011;29781;49.480;8.512;2022-09-30T04:40:14;12.45;;;5.85;;
44116;SDS011;29781;49.480;8.512;2022-09-30T04:42:41;8.68;;;5.80;;
44116;SDS011;29781;49.480;8.512;2022-09-30T04:45:08;8.73;;;6.13;;
44116;SDS011;29781;49.480;8.512;2022-09-30T04:47:35;12.98;;;6.45;;
44116;SDS011;29781;49.480;8.512;2022-09-30T04:50:00;7.40;;;6.30;;
44116;SDS011;29781;49.480;8.512;2022-09-30T04:52:26;7.82;;;5.97;;
44116;SDS011;29781;49.480;8.512;2022-09-30T04:54:52;9.00;;;5.90;;
44116;SDS011;29781;49.480;8.512;2022-09-30T04:57:18;10.23;;;6.47;;
44116;SDS011;29781;49.480;8.512;2022-09-30T04:59:44;10.68;;;6.43;;
44116;SDS011;29781;49.480;8.512;2022-09-30T05:02:09;8.75;;;6.65;;
44116;SDS011;29781;49.480;8.512;2022-09-30T05:04:37;9.85;;;7.03;;
44116;SDS011;29781;49.480;8.512;2022-09-30T05:07:03;12.25;;;6.43;;
44116;SDS011;29781;49.480;8.512;2022-09-30T05:09:33;12.10;;;6.63;;
44116;SDS011;29781;49.480;8.512;2022-09-30T05:11:59;11.52;;;6.38;;
44116;SDS011;29781;49.480;8.512;2022-09-30T05:14:27;9.75;;;6.25;;
44116;SDS011;29781;49.480;8.512;2022-09-30T05:16:53;10.02;;;6.43;;
44116;SDS011;29781;49.480;8.512;2022-09-30T05:19:19;7.78;;;6.53;;
44116;SDS011;29781;49.480;8.512;2022-09-30T05:21:45;10.38;;;7.10;;
44116;SDS011;29781;49.480;8.512;2022-09-30T05:24:11;8.68;;;6.25;;
44116;SDS011;29781;49.480;8.512;2022-09-30T05:26:38;7.45;;;5.85;;
44116;SDS011;29781;49.480;8.512;2022-09-30T05:29:05;11.32;;;6.63;;
44116;SDS011;29781;49.480;8.512;2022-09-30T05:31:31;8.05;;;5.88;;
44116;SDS011;29781;49.480;8.512;2022-09-30T05:33:57;10.02;;;6.43;;
44116;SDS011;29781;49.480;8.512;2022-09-30T05:36:23;8.23;;;6.80;;
44116;SDS011;29781;49.480;8.512;2022-09-30T05:38:49;9.68;;;6.55;;
44116;SDS011;29781;49.480;8.512;2022-09-30T05:41:16;7.43;;;6.28;;
44116;SDS011;29781;49.480;8.512;2022-09-30T05:43:43;10.05;;;6.75;;
44116;SDS011;29781;49.480;8.512;2022-09-30T05:46:21;10.65;;;6.88;;
44116;SDS011;29781;49.480;8.512;2022-09-30T05:48:46;8.52;;;6.40;;
44116;SDS011;29781;49.480;8.512;2022-09-30T05:51:12;10.45;;;6.75;;
44116;SDS011;29781;49.480;8.512;2022-09-30T05:53:38;9.70;;;6.80;;
44116;SDS011;29781;49.480;8.512;2022-09-30T05:56:04;12.15;;;6.70;;
44116;SDS011;29781;49.480;8.512;2022-09-30T05:58:30;12.05;;;7.07;;
44116;SDS011;29781;49.480;8.512;2022-09-30T06:00:56;13.45;;;6.93;;
44116;SDS011;29781;49.480;8.512;2022-09-30T06:03:27;13.02;;;7.68;;
44116;SDS011;29781;49.480;8.512;2022-09-30T06:05:55;11.23;;;8.60;;
44116;SDS011;29781;49.480;8.512;2022-09-30T06:08:21;9.73;;;7.03;;
44116;SDS011;29781;49.480;8.512;2022-09-30T06:10:48;13.55;;;7.65;;
44116;SDS011;29781;49.480;8.512;2022-09-30T06:13:13;11.85;;;7.78;;
44116;SDS011;29781;49.480;8.512;2022-09-30T06:15:41;15.38;;;8.18;;
44116;SDS011;29781;49.480;8.512;2022-09-30T06:18:07;16.15;;;8.40;;
44116;SDS011;29781;49.480;8.512;2022-09-30T06:20:33;13.25;;;7.85;;
44116;SDS011;29781;49.480;8.512;2022-09-30T06:23:00;11.25;;;8.10;;
44116;SDS011;29781;49.480;8.512;2022-09-30T06:25:27;14.82;;;8.50;;
44116;SDS011;29781;49.480;8.512;2022-09-30T06:27:53;14.77;;;8.85;;
44116;SDS011;29781;49.480;8.512;2022-09-30T06:30:19;14.57;;;8.13;;
44116;SDS011;29781;49.480;8.512;2022-09-30T06:32:45;15.45;;;9.50;;
44116;SDS011;29781;49.480;8.512;2022-09-30T06:35:11;13.13;;;9.68;;
44116;SDS011;29781;49.480;8.512;2022-09-30T06:37:37;14.68;;;10.70;;
44116;SDS011;29781;49.480;8.512;2022-09-30T06:40:06;13.18;;;10.20;;
44116;SDS011;29781;49.480;8.512;2022-09-30T06:42:32;14.63;;;10.45;;
44116;SDS011;29781;49.480;8.512;2022-09-30T06:44:58;14.90;;;9.77;;
44116;SDS011;29781;49.480;8.512;2022-09-30T06:47:24;17.20;;;11.98;;
44116;SDS011;29781;49.480;8.512;2022-09-30T06:49:50;18.23;;;11.85;;
44116;SDS011;29781;49.480;8.512;2022-09-30T06:52:17;18.90;;;11.20;;
44116;SDS011;29781;49.480;8.512;2022-09-30T06:54:43;18.88;;;12.00;;
44116;SDS011;29781;49.480;8.512;2022-09-30T06:57:11;20.17;;;12.18;;
44116;SDS011;29781;49.480;8.512;2022-09-30T06:59:37;19.90;;;11.50;;
44116;SDS011;29781;49.480;8.512;2022-09-30T07:02:02;15.45;;;11.13;;
44116;SDS011;29781;49.480;8.512;2022-09-30T07:04:28;18.00;;;12.40;;
44116;SDS011;29781;49.480;8.512;2022-09-30T07:06:54;19.95;;;12.05;;
44116;SDS011;29781;49.480;8.512;2022-09-30T07:09:20;17.85;;;12.55;;
44116;SDS011;29781;49.480;8.512;2022-09-30T07:11:45;17.75;;;12.35;;
44116;SDS011;29781;49.480;8.512;2022-09-30T07:14:12;18.50;;;12.75;;
44116;SDS011;29781;49.480;8.512;2022-09-30T07:16:38;18.75;;;12.55;;
44116;SDS011;29781;49.480;8.512;2022-09-30T07:19:04;15.75;;;11.45;;
44116;SDS011;29781;49.480;8.512;2022-09-30T07:21:31;18.85;;;11.65;;
44116;SDS011;29781;49.480;8.512;2022-09-30T07:23:57;13.63;;;10.45;;
44116;SDS011;29781;49.480;8.512;2022-09-30T07:26:24;21.65;;;11.73;;
44116;SDS011;29781;49.480;8.512;2022-09-30T07:28:51;18.65;;;13.18;;
44116;SDS011;29781;49.480;8.512;2022-09-30T07:31:18;63.13;;;16.55;;
44116;SDS011;29781;49.480;8.512;2022-09-30T07:33:46;33.38;;;16.73;;
44116;SDS011;29781;49.480;8.512;2022-09-30T07:36:12;26.20;;;16.55;;
44116;SDS011;29781;49.480;8.512;2022-09-30T07:38:42;36.38;;;18.50;;
44116;SDS011;29781;49.480;8.512;2022-09-30T07:41:13;30.17;;;17.80;;
44116;SDS011;29781;49.480;8.512;2022-09-30T07:43:42;31.25;;;17.50;;
44116;SDS011;29781;49.480;8.512;2022-09-30T07:48:34;20.67;;;15.65;;
44116;SDS011;29781;49.480;8.512;2022-09-30T07:51:19;26.65;;;15.93;;
44116;SDS011;29781;49.480;8.512;2022-09-30T07:53:54;22.17;;;15.95;;
44116;SDS011;29781;49.480;8.512;2022-09-30T07:56:23;23.67;;;15.40;;
44116;SDS011;29781;49.480;8.512;2022-09-30T07:58:56;24.02;;;15.32;;
44116;SDS011;29781;49.480;8.512;2022-09-30T08:01:24;19.88;;;14.77;;
44116;SDS011;29781;49.480;8.512;2022-09-30T08:03:52;27.67;;;18.10;;
44116;SDS011;29781;49.480;8.512;2022-09-30T08:06:20;22.17;;;17.38;;
44116;SDS011;29781;49.480;8.512;2022-09-30T08:08:46;27.38;;;17.75;;
44116;SDS011;29781;49.480;8.512;2022-09-30T08:11:14;35.13;;;21.58;;
44116;SDS011;29781;49.480;8.512;2022-09-30T08:13:40;36.95;;;22.73;;
44116;SDS011;29781;49.480;8.512;2022-09-30T08:16:05;34.63;;;21.80;;
44116;SDS011;29781;49.480;8.512;2022-09-30T08:18:31;32.80;;;23.83;;
44116;SDS011;29781;49.480;8.512;2022-09-30T08:21:06;39.13;;;22.13;;
44116;SDS011;29781;49.480;8.512;2022-09-30T08:23:32;32.58;;;21.77;;
44116;SDS011;29781;49.480;8.512;2022-09-30T08:26:08;32.10;;;21.42;;
44116;SDS011;29781;49.480;8.512;2022-09-30T08:28:36;37.85;;;24.08;;
44116;SDS011;29781;49.480;8.512;2022-09-30T08:33:35;37.53;;;23.70;;
44116;SDS011;29781;49.480;8.512;2022-09-30T08:36:06;34.88;;;23.15;;
44116;SDS011;29781;49.480;8.512;2022-09-30T08:38:33;36.10;;;23.27;;
44116;SDS011;29781;49.480;8.512;2022-09-30T08:44:05;37.70;;;24.05;;
44116;SDS011;29781;49.480;8.512;2022-09-30T08:52:22;57.05;;;34.38;;
44116;SDS011;29781;49.480;8.512;2022-09-30T08:54:55;57.15;;;34.13;;
44116;SDS011;29781;49.480;8.512;2022-09-30T08:57:22;57.13;;;37.13;;
44116;SDS011;29781;49.480;8.512;2022-09-30T08:59:51;59.88;;;35.83;;
44116;SDS011;29781;49.480;8.512;2022-09-30T09:02:25;52.97;;;32.15;;
44116;SDS011;29781;49.480;8.512;2022-09-30T09:04:56;60.20;;;32.45;;
44116;SDS011;29781;49.480;8.512;2022-09-30T09:24:03;45.20;;;28.95;;
44116;SDS011;29781;49.480;8.512;2022-09-30T09:26:36;41.58;;;29.50;;
44116;SDS011;29781;49.480;8.512;2022-09-30T09:31:39;42.45;;;28.85;;
44116;SDS011;29781;49.480;8.512;2022-09-30T09:34:08;50.80;;;29.42;;
44116;SDS011;29781;49.480;8.512;2022-09-30T09:39:54;43.45;;;28.52;;
44116;SDS011;29781;49.480;8.512;2022-09-30T09:42:30;43.80;;;28.08;;
44116;SDS011;29781;49.480;8.512;2022-09-30T09:45:05;38.33;;;27.08;;
44116;SDS011;29781;49.480;8.512;2022-09-30T09:47:53;40.78;;;27.20;;
44116;SDS011;29781;49.480;8.512;2022-09-30T09:50:26;37.55;;;26.70;;
44116;SDS011;29781;49.480;8.512;2022-09-30T09:56:01;42.67;;;26.75;;
44116;SDS011;29781;49.480;8.512;2022-09-30T09:58:32;38.03;;;26.77;;
44116;SDS011;29781;49.480;8.512;2022-09-30T10:01:10;40.63;;;25.45;;
44116;SDS011;29781;49.480;8.512;2022-09-30T10:06:51;42.67;;;25.58;;
44116;SDS011;29781;49.480;8.512;2022-09-30T10:14:32;28.58;;;18.42;;
44116;SDS011;29781;49.480;8.512;2022-09-30T10:17:03;30.05;;;16.88;;
44116;SDS011;29781;49.480;8.512;2022-09-30T10:19:31;23.70;;;13.97;;
44116;SDS011;29781;49.480;8.512;2022-09-30T10:24:35;24.77;;;17.48;;
44116;SDS011;29781;49.480;8.512;2022-09-30T10:27:02;25.48;;;16.73;;
44116;SDS011;29781;49.480;8.512;2022-09-30T10:29:29;25.83;;;17.60;;
44116;SDS011;29781;49.480;8.512;2022-09-30T10:31:57;25.63;;;17.48;;
44116;SDS011;29781;49.480;8.512;2022-09-30T10:36:56;24.60;;;15.43;;
44116;SDS011;29781;49.480;8.512;2022-09-30T10:42:01;19.15;;;12.32;;
44116;SDS011;29781;49.480;8.512;2022-09-30T10:44:27;17.23;;;12.82;;
44116;SDS011;29781;49.480;8.512;2022-09-30T10:46:58;16.33;;;12.20;;
44116;SDS011;29781;49.480;8.512;2022-09-30T10:49:30;15.93;;;10.88;;
44116;SDS011;29781;49.480;8.512;2022-09-30T10:52:02;15.95;;;10.10;;
44116;SDS011;29781;49.480;8.512;2022-09-30T10:54:33;11.90;;;9.30;;
44116;SDS011;29781;49.480;8.512;2022-09-30T10:57:18;15.00;;;9.73;;
44116;SDS011;29781;49.480;8.512;2022-09-30T10:59:51;14.20;;;9.68;;
44116;SDS011;29781;49.480;8.512;2022-09-30T11:02:46;13.88;;;8.45;;
44116;SDS011;29781;49.480;8.512;2022-09-30T11:05:22;12.57;;;8.77;;
44116;SDS011;29781;49.480;8.512;2022-09-30T11:13:37;12.52;;;8.13;;
44116;SDS011;29781;49.480;8.512;2022-09-30T11:16:17;11.27;;;7.10;;
44116;SDS011;29781;49.480;8.512;2022-09-30T11:19:27;12.75;;;8.32;;
44116;SDS011;29781;49.480;8.512;2022-09-30T11:22:27;11.50;;;8.80;;
44116;SDS011;29781;49.480;8.512;2022-09-30T11:25:14;11.68;;;7.93;;
44116;SDS011;29781;49.480;8.512;2022-09-30T11:30:32;13.55;;;8.50;;
44116;SDS011;29781;49.480;8.512;2022-09-30T11:41:28;10.73;;;8.23;;
44116;SDS011;29781;49.480;8.512;2022-09-30T11:52:14;11.82;;;7.05;;
44116;SDS011;29781;49.480;8.512;2022-09-30T11:57:41;14.80;;;8.20;;
44116;SDS011;29781;49.480;8.512;2022-09-30T12:00:24;16.35;;;8.63;;
44116;SDS011;29781;49.480;8.512;2022-09-30T12:02:55;12.00;;;8.40;;
44116;SDS011;29781;49.480;8.512;2022-09-30T12:05:44;14.40;;;7.88;;
44116;SDS011;29781;49.480;8.512;2022-09-30T12:08:19;13.18;;;7.70;;
44116;SDS011;29781;49.480;8.512;2022-09-30T12:10:55;9.10;;;6.28;;
44116;SDS011;29781;49.480;8.512;2022-09-30T12:13:36;10.52;;;6.95;;
44116;SDS011;29781;49.480;8.512;2022-09-30T12:16:07;10.32;;;5.88;;
44116;SDS011;29781;49.480;8.512;2022-09-30T12:18:36;7.40;;;5.40;;
44116;SDS011;29781;49.480;8.512;2022-09-30T12:23:49;11.88;;;6.22;;
44116;SDS011;29781;49.480;8.512;2022-09-30T12:26:23;9.32;;;5.50;;
44116;SDS011;29781;49.480;8.512;2022-09-30T12:48:11;6.20;;;4.03;;
44116;SDS011;29781;49.480;8.512;2022-09-30T12:53:24;5.13;;;3.20;;
44116;SDS011;29781;49.480;8.512;2022-09-30T12:55:53;6.53;;;3.30;;
44116;SDS011;29781;49.480;8.512;2022-09-30T12:58:29;6.07;;;3.88;;
44116;SDS011;29781;49.480;8.512;2022-09-30T13:03:42;5.32;;;2.78;;
44116;SDS011;29781;49.480;8.512;2022-09-30T13:06:13;3.50;;;2.20;;
44116;SDS011;29781;49.480;8.512;2022-09-30T13:08:46;2.33;;;2.00;;
44116;SDS011;29781;49.480;8.512;2022-09-30T13:11:34;4.50;;;1.77;;
44116;SDS011;29781;49.480;8.512;2022-09-30T13:27:44;6.32;;;3.55;;
44116;SDS011;29781;49.480;8.512;2022-09-30T13:32:42;6.63;;;3.72;;
44116;SDS011;29781;49.480;8.512;2022-09-30T13:43:24;4.60;;;3.47;;
44116;SDS011;29781;49.480;8.512;2022-09-30T13:46:05;7.60;;;4.18;;
44116;SDS011;29781;49.480;8.512;2022-09-30T13:48:47;9.65;;;4.30;;
44116;SDS011;29781;49.480;8.512;2022-09-30T13:51:17;5.90;;;4.22;;
44116;SDS011;29781;49.480;8.512;2022-09-30T13:53:50;8.55;;;4.97;;
44116;SDS011;29781;49.480;8.512;2022-09-30T14:15:45;8.90;;;4.10;;
44116;SDS011;29781;49.480;8.512;2022-09-30T14:18:37;6.75;;;4.40;;
44116;SDS011;29781;49.480;8.512;2022-09-30T14:24:24;5.70;;;3.88;;
44116;SDS011;29781;49.480;8.512;2022-09-30T14:29:37;4.70;;;4.20;;
44116;SDS011;29781;49.480;8.512;2022-09-30T14:32:09;5.80;;;4.40;;
44116;SDS011;29781;49.480;8.512;2022-09-30T14:34:42;6.78;;;4.13;;
44116;SDS011;29781;49.480;8.512;2022-09-30T14:37:16;12.73;;;4.47;;
44116;SDS011;29781;49.480;8.512;2022-09-30T14:39:47;5.72;;;4.45;;
44116;SDS011;29781;49.480;8.512;2022-09-30T14:42:17;6.40;;;4.55;;
44116;SDS011;29781;49.480;8.512;2022-09-30T14:44:48;8.15;;;4.28;;
44116;SDS011;29781;49.480;8.512;2022-09-30T14:47:15;8.35;;;4.30;;
44116;SDS011;29781;49.480;8.512;2022-09-30T14:49:42;6.65;;;3.67;;
44116;SDS011;29781;49.480;8.512;2022-09-30T14:55:00;5.28;;;3.45;;
44116;SDS011;29781;49.480;8.512;2022-09-30T14:57:28;6.88;;;3.80;;
44116;SDS011;29781;49.480;8.512;2022-09-30T15:00:17;8.30;;;3.70;;
44116;SDS011;29781;49.480;8.512;2022-09-30T15:02:43;5.07;;;3.22;;
44116;SDS011;29781;49.480;8.512;2022-09-30T15:05:11;4.18;;;3.70;;
44116;SDS011;29781;49.480;8.512;2022-09-30T15:07:39;6.78;;;2.80;;
44116;SDS011;29781;49.480;8.512;2022-09-30T15:10:05;6.15;;;3.10;;
44116;SDS011;29781;49.480;8.512;2022-09-30T15:12:31;7.50;;;3.10;;
44116;SDS011;29781;49.480;8.512;2022-09-30T15:15:01;5.93;;;3.10;;
44116;SDS011;29781;49.480;8.512;2022-09-30T15:18:19;3.72;;;2.60;;
44116;SDS011;29781;49.480;8.512;2022-09-30T15:20:48;5.13;;;3.17;;
44116;SDS011;29781;49.480;8.512;2022-09-30T15:23:21;5.40;;;2.83;;
44116;SDS011;29781;49.480;8.512;2022-09-30T15:25:53;4.25;;;3.00;;
44116;SDS011;29781;49.480;8.512;2022-09-30T15:28:19;4.35;;;3.05;;
44116;SDS011;29781;49.480;8.512;2022-09-30T15:30:45;4.22;;;2.83;;
44116;SDS011;29781;49.480;8.512;2022-09-30T15:33:11;6.68;;;2.80;;
44116;SDS011;29781;49.480;8.512;2022-09-30T15:38:08;3.70;;;2.35;;
44116;SDS011;29781;49.480;8.512;2022-09-30T15:40:44;6.07;;;2.72;;
44116;SDS011;29781;49.480;8.512;2022-09-30T15:43:30;5.05;;;2.45;;
44116;SDS011;29781;49.480;8.512;2022-09-30T15:48:39;7.53;;;2.70;;
44116;SDS011;29781;49.480;8.512;2022-09-30T15:51:21;6.00;;;2.92;;
44116;SDS011;29781;49.480;8.512;2022-09-30T15:53:55;3.92;;;2.47;;
44116;SDS011;29781;49.480;8.512;2022-09-30T15:56:31;4.65;;;2.40;;
44116;SDS011;29781;49.480;8.512;2022-09-30T15:59:05;11.65;;;3.15;;
44116;SDS011;29781;49.480;8.512;2022-09-30T16:01:39;3.50;;;2.30;;
44116;SDS011;29781;49.480;8.512;2022-09-30T16:04:11;5.25;;;2.53;;
44116;SDS011;29781;49.480;8.512;2022-09-30T16:09:13;3.65;;;2.45;;
44116;SDS011;29781;49.480;8.512;2022-09-30T16:11:46;2.42;;;2.22;;
44116;SDS011;29781;49.480;8.512;2022-09-30T16:14:25;4.78;;;1.95;;
44116;SDS011;29781;49.480;8.512;2022-09-30T16:16:52;4.28;;;2.42;;
44116;SDS011;29781;49.480;8.512;2022-09-30T16:19:20;6.82;;;2.70;;
44116;SDS011;29781;49.480;8.512;2022-09-30T16:21:48;8.40;;;2.92;;
44116;SDS011;29781;49.480;8.512;2022-09-30T16:26:47;2.20;;;2.00;;
44116;SDS011;29781;49.480;8.512;2022-09-30T16:29:13;4.32;;;2.00;;
44116;SDS011;29781;49.480;8.512;2022-09-30T16:31:41;3.17;;;1.83;;
44116;SDS011;29781;49.480;8.512;2022-09-30T16:34:17;4.60;;;2.00;;
44116;SDS011;29781;49.480;8.512;2022-09-30T16:36:46;2.20;;;1.85;;
44116;SDS011;29781;49.480;8.512;2022-09-30T16:39:12;3.25;;;2.05;;
44116;SDS011;29781;49.480;8.512;2022-09-30T16:41:39;2.00;;;1.60;;
44116;SDS011;29781;49.480;8.512;2022-09-30T16:44:06;1.88;;;1.63;;
44116;SDS011;29781;49.480;8.512;2022-09-30T16:46:32;2.25;;;1.70;;
44116;SDS011;29781;49.480;8.512;2022-09-30T16:48:57;2.72;;;2.00;;
44116;SDS011;29781;49.480;8.512;2022-09-30T16:51:24;3.60;;;1.75;;
44116;SDS011;29781;49.480;8.512;2022-09-30T16:53:49;2.25;;;2.05;;
44116;SDS011;29781;49.480;8.512;2022-09-30T16:56:16;6.68;;;2.08;;
44116;SDS011;29781;49.480;8.512;2022-09-30T16:58:44;2.75;;;1.95;;
44116;SDS011;29781;49.480;8.512;2022-09-30T17:01:14;6.53;;;2.20;;
44116;SDS011;29781;49.480;8.512;2022-09-30T17:03:46;2.70;;;2.38;;
44116;SDS011;29781;49.480;8.512;2022-09-30T17:06:13;2.85;;;2.30;;
44116;SDS011;29781;49.480;8.512;2022-09-30T17:08:43;2.58;;;2.00;;
44116;SDS011;29781;49.480;8.512;2022-09-30T17:11:09;2.53;;;2.17;;
44116;SDS011;29781;49.480;8.512;2022-09-30T17:13:35;3.53;;;2.38;;
44116;SDS011;29781;49.480;8.512;2022-09-30T17:16:01;4.65;;;2.20;;
44116;SDS011;29781;49.480;8.512;2022-09-30T17:18:27;2.50;;;2.20;;
44116;SDS011;29781;49.480;8.512;2022-09-30T17:20:53;6.05;;;3.05;;
44116;SDS011;29781;49.480;8.512;2022-09-30T17:23:20;3.08;;;2.67;;
44116;SDS011;29781;49.480;8.512;2022-09-30T17:25:47;3.30;;;2.97;;
44116;SDS011;29781;49.480;8.512;2022-09-30T17:28:12;6.07;;;4.75;;
44116;SDS011;29781;49.480;8.512;2022-09-30T17:30:39;11.05;;;5.70;;
44116;SDS011;29781;49.480;8.512;2022-09-30T17:33:06;7.72;;;5.30;;
44116;SDS011;29781;49.480;8.512;2022-09-30T17:35:34;13.15;;;8.90;;
44116;SDS011;29781;49.480;8.512;2022-09-30T17:38:06;17.25;;;9.05;;
44116;SDS011;29781;49.480;8.512;2022-09-30T17:40:33;12.50;;;5.93;;
44116;SDS011;29781;49.480;8.512;2022-09-30T17:43:17;6.32;;;4.05;;
44116;SDS011;29781;49.480;8.512;2022-09-30T17:45:43;4.47;;;3.30;;
44116;SDS011;29781;49.480;8.512;2022-09-30T17:48:10;4.75;;;3.92;;
44116;SDS011;29781;49.480;8.512;2022-09-30T17:50:37;5.32;;;4.07;;
44116;SDS011;29781;49.480;8.512;2022-09-30T17:53:05;6.68;;;4.47;;
44116;SDS011;29781;49.480;8.512;2022-09-30T17:55:31;4.90;;;4.10;;
44116;SDS011;29781;49.480;8.512;2022-09-30T17:58:00;9.15;;;4.10;;
44116;SDS011;29781;49.480;8.512;2022-09-30T18:00:27;8.30;;;5.05;;
44116;SDS011;29781;49.480;8.512;2022-09-30T18:02:53;6.78;;;4.30;;
44116;SDS011;29781;49.480;8.512;2022-09-30T18:05:20;6.85;;;4.53;;
44116;SDS011;29781;49.480;8.512;2022-09-30T18:07:46;11.07;;;4.53;;
44116;SDS011;29781;49.480;8.512;2022-09-30T18:10:12;9.63;;;5.25;;
44116;SDS011;29781;49.480;8.512;2022-09-30T18:12:37;6.85;;;4.70;;
44116;SDS011;29781;49.480;8.512;2022-09-30T18:15:04;8.85;;;5.13;;
44116;SDS011;29781;49.480;8.512;2022-09-30T18:17:30;13.02;;;8.30;;
44116;SDS011;29781;49.480;8.512;2022-09-30T18:19:56;30.10;;;16.83;;
44116;SDS011;29781;49.480;8.512;2022-09-30T18:22:22;22.15;;;12.40;;
44116;SDS011;29781;49.480;8.512;2022-09-30T18:24:47;58.08;;;24.95;;
44116;SDS011;29781;49.480;8.512;2022-09-30T18:27:31;38.85;;;17.83;;
44116;SDS011;29781;49.480;8.512;2022-09-30T18:29:58;38.20;;;16.73;;
44116;SDS011;29781;49.480;8.512;2022-09-30T18:32:25;31.38;;;15.07;;
44116;SDS011;29781;49.480;8.512;2022-09-30T18:34:52;25.77;;;14.02;;
44116;SDS011;29781;49.480;8.512;2022-09-30T18:37:20;31.13;;;14.13;;
44116;SDS011;29781;49.480;8.512;2022-09-30T18:39:46;25.63;;;12.90;;
44116;SDS011;29781;49.480;8.512;2022-09-30T18:42:12;19.60;;;9.73;;
44116;SDS011;29781;49.480;8.512;2022-09-30T18:44:37;7.72;;;6.13;;
44116;SDS011;29781;49.480;8.512;2022-09-30T18:47:04;10.05;;;5.45;;
44116;SDS011;29781;49.480;8.512;2022-09-30T18:49:30;8.13;;;5.20;;
44116;SDS011;29781;49.480;8.512;2022-09-30T18:51:56;6.05;;;4.85;;
44116;SDS011;29781;49.480;8.512;2022-09-30T18:54:22;9.27;;;5.70;;
44116;SDS011;29781;49.480;8.512;2022-09-30T18:56:48;6.93;;;4.82;;